createdAt,value
2023-04-27T00:00:16.410Z,395.334336
2023-04-27T00:05:16.548Z,332.756579
2023-04-27T00:10:16.905Z,213.199062
2023-04-27T00:15:16.574Z,201.190185
2023-04-27T00:20:16.714Z,236.678612
2023-04-27T00:25:15.822Z,207.210607
2023-04-27T00:30:16.724Z,228.135717
2023-04-27T00:35:16.173Z,208.867251
2023-04-27T00:40:16.393Z,312.658229
2023-04-27T00:45:16.059Z,295.065886
2023-04-27T00:50:15.873Z,239.780502
2023-04-27T00:55:16.550Z,203.706303
2023-04-27T01:00:15.820Z,184.261779
2023-04-27T01:05:16.993Z,172.062669
2023-04-27T01:10:15.988Z,177.676961
2023-04-27T01:15:16.479Z,175.122907
2023-04-27T01:20:16.381Z,140.376123
2023-04-27T01:25:15.849Z,131.922300
2023-04-27T01:30:16.044Z,131.195732
2023-04-27T01:35:15.766Z,125.537760
2023-04-27T01:40:16.644Z,114.493663
2023-04-27T01:45:16.515Z,100.747728
2023-04-27T01:50:16.439Z,97.895562
2023-04-27T01:55:16.157Z,85.104562
2023-04-27T02:00:16.004Z,73.251792
2023-04-27T02:05:15.965Z,59.121994
2023-04-27T02:10:15.852Z,51.794227
2023-04-27T02:15:15.818Z,44.293060
2023-04-27T02:20:16.361Z,38.950593
2023-04-27T02:25:17.174Z,34.032922
2023-04-27T02:30:15.958Z,29.081808
2023-04-27T02:35:16.111Z,22.782717
2023-04-27T02:40:16.164Z,16.795414
2023-04-27T02:45:16.459Z,11.720497
2023-04-27T02:50:15.952Z,7.802923
2023-04-27T02:55:15.851Z,4.297503
2023-04-27T03:00:16.378Z,2.142150
2023-04-27T03:05:16.245Z,0.641945
2023-04-27T03:10:16.836Z,0.060037
2023-04-27T03:15:16.434Z,0.002281
2023-04-27T03:20:16.055Z,0.002297
2023-04-27T03:25:15.887Z,0.000000
2023-04-27T03:30:15.807Z,0.000000
2023-04-27T03:35:15.790Z,0.000000
2023-04-27T03:40:16.360Z,0.000000
2023-04-27T03:45:15.936Z,0.000000
2023-04-27T03:50:16.675Z,0.000000
2023-04-27T03:55:15.909Z,0.000000
2023-04-27T04:00:15.889Z,0.000000
2023-04-27T04:05:16.303Z,0.000000
2023-04-27T04:10:15.912Z,0.000000
2023-04-27T04:15:16.914Z,0.000000
2023-04-27T04:20:16.426Z,0.000000
2023-04-27T04:25:15.842Z,0.000000
2023-04-27T04:30:16.165Z,0.000000
2023-04-27T04:35:16.087Z,0.000000
2023-04-27T04:40:16.105Z,0.000000
2023-04-27T04:45:15.819Z,0.000000
2023-04-27T04:50:16.134Z,0.000000
2023-04-27T04:55:17.478Z,0.000000
2023-04-27T05:00:16.396Z,0.000000
2023-04-27T05:05:17.230Z,0.000000
2023-04-27T05:10:15.860Z,0.000000
2023-04-27T05:15:16.126Z,0.000000
2023-04-27T05:20:16.277Z,0.000000
2023-04-27T05:25:17.843Z,0.000000
2023-04-27T05:30:15.865Z,0.000000
2023-04-27T05:35:17.475Z,0.000000
2023-04-27T05:40:17.545Z,0.000000
2023-04-27T05:45:16.628Z,0.000000
2023-04-27T05:50:16.352Z,0.000000
2023-04-27T05:55:16.087Z,0.000000
2023-04-27T06:00:17.394Z,0.000000
2023-04-27T06:05:16.428Z,0.000000
2023-04-27T06:10:16.025Z,0.000000
2023-04-27T06:15:16.026Z,0.000000
2023-04-27T06:20:16.877Z,0.000000
2023-04-27T06:25:16.190Z,0.000000
2023-04-27T06:30:16.646Z,0.000000
2023-04-27T06:35:16.625Z,0.000000
2023-04-27T06:40:16.713Z,0.000000
2023-04-27T06:45:15.846Z,0.000000
2023-04-27T06:50:15.985Z,0.000000
2023-04-27T06:55:18.121Z,0.000000
2023-04-27T07:00:16.008Z,0.000000
2023-04-27T07:05:16.019Z,0.000000
2023-04-27T07:10:16.380Z,0.000000
2023-04-27T07:15:16.722Z,0.000000
2023-04-27T07:20:16.120Z,0.000000
2023-04-27T07:25:16.461Z,0.000000
2023-04-27T07:30:16.420Z,0.000000
2023-04-27T07:35:16.383Z,0.000000
2023-04-27T07:40:17.128Z,0.000000
2023-04-27T07:45:16.103Z,0.000000
2023-04-27T07:50:16.033Z,0.000000
2023-04-27T07:55:15.917Z,0.000000
2023-04-27T08:00:15.992Z,0.000000
2023-04-27T08:05:16.811Z,0.000000
2023-04-27T08:10:16.606Z,0.000000
2023-04-27T08:15:16.094Z,0.000000
2023-04-27T08:20:16.771Z,0.000000
2023-04-27T08:25:15.996Z,0.000000
2023-04-27T08:30:15.998Z,0.000000
2023-04-27T08:35:15.993Z,0.000000
2023-04-27T08:40:16.331Z,0.000000
2023-04-27T08:45:17.963Z,0.000000
2023-04-27T08:50:16.655Z,0.000000
2023-04-27T08:55:16.974Z,0.000000
2023-04-27T09:00:17.536Z,0.000000
2023-04-27T09:05:16.181Z,0.000000
2023-04-27T09:10:15.768Z,0.000000
2023-04-27T09:15:16.261Z,0.000000
2023-04-27T09:20:16.121Z,0.000000
2023-04-27T09:25:16.990Z,0.000000
2023-04-27T09:30:16.226Z,0.000000
2023-04-27T09:35:16.187Z,0.000000
2023-04-27T09:40:16.706Z,0.000000
2023-04-27T09:45:16.933Z,0.000000
2023-04-27T09:50:15.956Z,0.000000
2023-04-27T09:55:16.580Z,0.000000
2023-04-27T10:00:15.816Z,0.000000
2023-04-27T10:05:16.301Z,0.000000
2023-04-27T10:10:16.725Z,0.000000
2023-04-27T10:15:15.971Z,0.000000
2023-04-27T10:20:15.846Z,0.000000
2023-04-27T10:25:16.669Z,0.000000
2023-04-27T10:30:16.557Z,0.000000
2023-04-27T10:35:16.421Z,0.000000
2023-04-27T10:40:17.531Z,0.000000
2023-04-27T10:45:16.724Z,0.000000
2023-04-27T10:50:16.145Z,0.000000
2023-04-27T10:55:17.709Z,0.000000
2023-04-27T11:00:16.538Z,0.000000
2023-04-27T11:05:16.119Z,0.000000
2023-04-27T11:10:16.282Z,0.000000
2023-04-27T11:15:15.735Z,0.000000
2023-04-27T11:20:16.674Z,0.000000
2023-04-27T11:25:15.882Z,0.000000
2023-04-27T11:30:16.316Z,0.000000
2023-04-27T11:35:16.653Z,0.000000
2023-04-27T11:40:17.416Z,0.000000
2023-04-27T11:45:17.942Z,0.000000
2023-04-27T11:50:15.923Z,0.000000
2023-04-27T11:55:16.147Z,0.000000
2023-04-27T12:00:15.948Z,0.000000
2023-04-27T12:05:16.530Z,0.000000
2023-04-27T12:10:16.391Z,0.000000
2023-04-27T12:15:16.369Z,0.000000
2023-04-27T12:20:16.384Z,0.000000
2023-04-27T12:25:17.664Z,0.000000
2023-04-27T12:30:16.058Z,0.000000
2023-04-27T12:35:16.934Z,0.000000
2023-04-27T12:40:15.910Z,0.000000
2023-04-27T12:45:15.803Z,0.000000
2023-04-27T12:50:16.019Z,0.000000
2023-04-27T12:55:25.115Z,0.000000
2023-04-27T13:00:15.892Z,0.009167
2023-04-27T13:05:16.215Z,0.093924
2023-04-27T13:10:16.376Z,0.532154
2023-04-27T13:15:16.601Z,1.705637
2023-04-27T13:20:15.945Z,3.627940
2023-04-27T13:25:16.314Z,6.406320
2023-04-27T13:30:16.257Z,9.657279
2023-04-27T13:35:16.295Z,13.739912
2023-04-27T13:40:15.989Z,18.477729
2023-04-27T13:45:15.802Z,22.932088
2023-04-27T13:50:15.919Z,26.503070
2023-04-27T13:55:16.355Z,30.273821
2023-04-27T14:00:16.668Z,34.114359
2023-04-27T14:05:16.536Z,38.706411
2023-04-27T14:10:15.872Z,43.563503
2023-04-27T14:15:16.413Z,49.433118
2023-04-27T14:20:16.664Z,54.988255
2023-04-27T14:25:16.833Z,70.696580
2023-04-27T14:30:15.994Z,74.716276
2023-04-27T14:35:16.031Z,83.660416
2023-04-27T14:40:16.099Z,96.170250
2023-04-27T14:45:16.561Z,101.196754
2023-04-27T14:50:15.916Z,116.652408
2023-04-27T14:55:16.884Z,138.027798
2023-04-27T15:00:16.670Z,161.867711
2023-04-27T15:05:16.783Z,167.910077
2023-04-27T15:10:16.383Z,175.822141
2023-04-27T15:15:16.867Z,184.786899
2023-04-27T15:20:17.248Z,200.949400
2023-04-27T15:25:16.070Z,217.364120
2023-04-27T15:30:15.742Z,234.353137
2023-04-27T15:35:16.193Z,247.868721
2023-04-27T15:40:15.902Z,254.908664
2023-04-27T15:45:16.384Z,254.024600
2023-04-27T15:50:17.495Z,269.191184
2023-04-27T15:55:16.101Z,293.842005
2023-04-27T16:00:16.259Z,315.064371
2023-04-27T16:05:15.899Z,314.368576
2023-04-27T16:10:16.269Z,314.142113
2023-04-27T16:15:16.530Z,316.098219
2023-04-27T16:20:16.611Z,315.184406
2023-04-27T16:25:16.502Z,335.487368
2023-04-27T16:30:16.488Z,340.325664
2023-04-27T16:35:15.901Z,368.904528
2023-04-27T16:40:15.915Z,373.565026
2023-04-27T16:45:16.194Z,380.601996
2023-04-27T16:50:16.112Z,424.684802
2023-04-27T16:55:16.149Z,436.922905
2023-04-27T17:00:16.291Z,432.655633
2023-04-27T17:05:15.980Z,475.679031
2023-04-27T17:10:15.788Z,498.793115
2023-04-27T17:15:16.241Z,500.844389
2023-04-27T17:20:16.192Z,533.400953
2023-04-27T17:25:16.088Z,543.311547
2023-04-27T17:30:16.005Z,561.920480
2023-04-27T17:35:16.016Z,581.948513
2023-04-27T17:40:16.069Z,556.427544
2023-04-27T17:45:15.720Z,596.387150
2023-04-27T17:50:16.409Z,624.505980
2023-04-27T17:55:15.892Z,624.421741
2023-04-27T18:00:15.863Z,645.143950
2023-04-27T18:05:15.899Z,671.542248
2023-04-27T18:10:16.043Z,683.531628
2023-04-27T18:15:15.890Z,699.135959
2023-04-27T18:20:15.896Z,690.924789
2023-04-27T18:25:17.201Z,697.249415
2023-04-27T18:30:16.079Z,689.792719
2023-04-27T18:35:16.563Z,680.931277
2023-04-27T18:40:15.813Z,692.026532
2023-04-27T18:45:16.878Z,697.123731
2023-04-27T18:50:16.240Z,708.851829
2023-04-27T18:55:16.126Z,694.846995
2023-04-27T19:00:15.895Z,716.043705
2023-04-27T19:05:16.113Z,766.172024
2023-04-27T19:10:15.883Z,777.401675
2023-04-27T19:15:16.444Z,750.945169
2023-04-27T19:20:16.267Z,724.973425
2023-04-27T19:25:16.055Z,778.181802
2023-04-27T19:30:15.997Z,782.887284
2023-04-27T19:35:15.973Z,783.708242
2023-04-27T19:40:15.905Z,786.303023
2023-04-27T19:45:16.187Z,796.373618
2023-04-27T19:50:15.802Z,801.875724
2023-04-27T19:55:15.980Z,816.916567
2023-04-27T20:00:16.033Z,825.717231
2023-04-27T20:05:16.341Z,830.137231
2023-04-27T20:10:15.969Z,831.919316
2023-04-27T20:15:16.605Z,832.959152
2023-04-27T20:20:15.688Z,827.255356
2023-04-27T20:25:16.864Z,830.892500
2023-04-27T20:30:16.097Z,828.521276
2023-04-27T20:35:16.134Z,828.305493
2023-04-27T20:40:16.472Z,821.692464
2023-04-27T20:45:16.198Z,826.469418
2023-04-27T20:50:16.373Z,831.095157
2023-04-27T20:55:15.917Z,819.892563
2023-04-27T21:00:16.055Z,823.139473
2023-04-27T21:05:16.036Z,810.298822
2023-04-27T21:10:15.857Z,801.854624
2023-04-27T21:15:16.339Z,802.510128
2023-04-27T21:20:15.864Z,795.710013
2023-04-27T21:25:16.177Z,800.023449
2023-04-27T21:30:15.920Z,800.818461
2023-04-27T21:35:15.760Z,794.964278
2023-04-27T21:40:15.831Z,788.122387
2023-04-27T21:45:15.902Z,781.357297
2023-04-27T21:50:16.140Z,770.687764
2023-04-27T21:55:15.773Z,761.524764
2023-04-27T22:00:15.923Z,755.752420
2023-04-27T22:05:16.654Z,744.687367
2023-04-27T22:10:15.882Z,731.980282
2023-04-27T22:15:16.447Z,722.120268
2023-04-27T22:20:15.848Z,711.555782
2023-04-27T22:25:17.242Z,700.317634
2023-04-27T22:30:16.343Z,688.076864
2023-04-27T22:35:25.541Z,675.946321
2023-04-27T22:40:16.683Z,663.145777
2023-04-27T22:45:15.981Z,649.003276
2023-04-27T22:50:17.127Z,634.921633
2023-04-27T22:55:16.418Z,623.657975
2023-04-27T23:00:16.698Z,609.815262
2023-04-27T23:05:16.267Z,595.407156
2023-04-27T23:10:16.731Z,580.132390
2023-04-27T23:15:17.320Z,564.930774
2023-04-27T23:20:27.528Z,550.430209
2023-04-27T23:25:16.051Z,535.753175
2023-04-27T23:30:16.227Z,521.674983
2023-04-27T23:35:16.150Z,506.788737
2023-04-27T23:40:15.925Z,491.909116
2023-04-27T23:45:16.500Z,476.612558
2023-04-27T23:50:16.445Z,461.344525
2023-04-27T23:55:16.198Z,447.047177
